createdAt,value
2023-09-19T00:00:49.802Z,54.34
2023-09-19T00:03:18.558Z,54.10
2023-09-19T00:05:46.963Z,54.20
2023-09-19T00:08:15.222Z,54.88
2023-09-19T00:10:43.677Z,54.84
2023-09-19T00:13:15.297Z,54.15
2023-09-19T00:15:51.884Z,54.26
2023-09-19T00:18:25.362Z,55.14
2023-09-19T00:20:53.857Z,54.96
2023-09-19T00:23:22.275Z,54.30
2023-09-19T00:25:50.623Z,53.51
2023-09-19T00:28:26.386Z,53.56
2023-09-19T00:30:58.060Z,53.36
2023-09-19T00:33:26.040Z,53.00
2023-09-19T00:35:55.662Z,53.30
2023-09-19T00:38:28.255Z,53.39
2023-09-19T00:41:00.711Z,53.36
2023-09-19T00:43:29.055Z,53.25
2023-09-19T00:45:58.404Z,54.83
2023-09-19T00:48:29.848Z,53.72
2023-09-19T00:51:04.763Z,52.75
2023-09-19T00:53:35.250Z,52.55
2023-09-19T00:56:08.904Z,52.64
2023-09-19T00:58:38.481Z,51.75
2023-09-19T01:01:09.289Z,51.29
2023-09-19T01:03:39.106Z,52.17
2023-09-19T01:06:08.716Z,53.54
2023-09-19T01:08:37.760Z,53.01
2023-09-19T01:11:40.685Z,52.19
2023-09-19T01:14:39.244Z,53.67
2023-09-19T01:17:33.877Z,52.81
2023-09-19T01:20:19.899Z,51.80
2023-09-19T01:23:15.862Z,52.43
2023-09-19T01:26:20.213Z,52.62
2023-09-19T01:29:40.217Z,52.25
2023-09-19T01:32:11.713Z,52.21
2023-09-19T01:34:51.458Z,51.64
2023-09-19T01:37:28.284Z,51.10
2023-09-19T01:40:12.357Z,50.68
2023-09-19T01:43:17.356Z,50.56
2023-09-19T01:46:17.053Z,50.24
2023-09-19T01:49:07.430Z,50.48
2023-09-19T01:51:58.198Z,50.76
2023-09-19T01:54:47.570Z,50.53
2023-09-19T01:57:33.539Z,50.50
2023-09-19T02:00:13.042Z,49.75
2023-09-19T02:02:48.933Z,49.87
2023-09-19T02:05:34.237Z,49.72
2023-09-19T02:08:01.875Z,49.64
2023-09-19T02:10:29.358Z,50.01
2023-09-19T02:12:57.750Z,50.14
2023-09-19T02:15:25.185Z,49.91
2023-09-19T02:17:52.633Z,50.60
2023-09-19T02:20:21.490Z,50.34
2023-09-19T02:22:51.245Z,50.61
2023-09-19T02:25:19.236Z,50.55
2023-09-19T02:27:46.733Z,50.72
2023-09-19T02:30:17.270Z,50.48
2023-09-19T02:32:46.111Z,50.59
2023-09-19T02:35:15.076Z,50.49
2023-09-19T02:37:42.995Z,52.60
2023-09-19T02:40:20.420Z,51.82
2023-09-19T02:42:50.730Z,50.68
2023-09-19T02:45:18.958Z,52.05
2023-09-19T02:47:49.871Z,51.84
2023-09-19T02:50:18.762Z,52.61
2023-09-19T02:52:50.929Z,52.82
2023-09-19T02:55:21.153Z,53.07
2023-09-19T02:57:57.710Z,52.52
2023-09-19T03:00:25.802Z,53.53
2023-09-19T03:02:56.430Z,53.81
2023-09-19T03:05:25.795Z,53.99
2023-09-19T03:07:53.798Z,53.05
2023-09-19T03:10:22.985Z,53.10
2023-09-19T03:12:51.265Z,52.45
2023-09-19T03:15:20.107Z,52.67
2023-09-19T03:17:53.235Z,52.55
2023-09-19T03:20:23.837Z,52.20
2023-09-19T03:22:53.574Z,52.23
2023-09-19T03:25:23.846Z,51.18
2023-09-19T03:27:53.001Z,51.54
2023-09-19T03:30:22.380Z,51.22
2023-09-19T03:32:51.805Z,50.78
2023-09-19T03:35:20.499Z,52.27
2023-09-19T03:37:49.660Z,52.29
2023-09-19T03:40:21.332Z,52.18
2023-09-19T03:42:49.221Z,51.66
2023-09-19T03:45:17.438Z,51.53
2023-09-19T03:47:53.765Z,51.41
2023-09-19T03:50:23.565Z,51.90
2023-09-19T03:52:52.101Z,52.18
2023-09-19T03:55:19.716Z,51.45
2023-09-19T03:57:51.228Z,51.07
2023-09-19T04:00:22.250Z,52.31
2023-09-19T04:02:50.638Z,51.50
2023-09-19T04:05:18.228Z,50.79
2023-09-19T04:07:46.756Z,50.23
2023-09-19T04:10:15.961Z,50.28
2023-09-19T04:12:57.152Z,50.52
2023-09-19T04:15:25.700Z,53.11
2023-09-19T04:17:56.139Z,51.92
2023-09-19T04:20:26.870Z,52.03
2023-09-19T04:22:54.282Z,52.10
2023-09-19T04:25:22.047Z,53.07
2023-09-19T04:27:49.948Z,52.87
2023-09-19T04:30:18.127Z,53.49
2023-09-19T04:32:45.949Z,53.25
2023-09-19T04:35:13.263Z,53.57
2023-09-19T04:37:45.104Z,54.07
2023-09-19T04:40:13.897Z,55.17
2023-09-19T04:42:42.859Z,55.14
2023-09-19T04:45:11.750Z,55.49
2023-09-19T04:47:44.831Z,55.01
2023-09-19T04:50:13.365Z,53.19
2023-09-19T04:53:02.452Z,53.12
2023-09-19T04:55:31.529Z,53.26
2023-09-19T04:57:58.868Z,53.33
2023-09-19T05:00:28.616Z,53.75
2023-09-19T05:02:58.963Z,53.38
2023-09-19T05:05:27.313Z,52.88
2023-09-19T05:07:55.568Z,52.74
2023-09-19T05:10:23.518Z,52.72
2023-09-19T05:12:55.110Z,51.93
2023-09-19T05:15:22.711Z,51.05
2023-09-19T05:17:58.226Z,51.75
2023-09-19T05:20:37.200Z,52.61
2023-09-19T05:23:14.890Z,55.22
2023-09-19T05:25:43.249Z,54.92
2023-09-19T05:28:16.396Z,55.84
2023-09-19T05:30:46.906Z,57.13
2023-09-19T05:33:19.444Z,57.60
2023-09-19T05:35:49.816Z,58.09
2023-09-19T05:38:23.903Z,59.26
2023-09-19T05:40:51.907Z,60.15
2023-09-19T05:43:19.844Z,60.61
2023-09-19T05:45:47.151Z,61.05
2023-09-19T05:48:16.707Z,61.51
2023-09-19T05:50:48.240Z,61.41
2023-09-19T05:53:16.597Z,61.20
2023-09-19T05:55:44.581Z,61.67
2023-09-19T05:58:15.098Z,61.97
2023-09-19T06:00:44.176Z,62.08
2023-09-19T06:03:15.202Z,62.02
2023-09-19T06:05:42.981Z,61.74
2023-09-19T06:08:10.600Z,61.62
2023-09-19T06:10:38.108Z,60.97
2023-09-19T06:13:06.826Z,61.55
2023-09-19T06:15:34.626Z,60.10
2023-09-19T06:18:02.545Z,61.38
2023-09-19T06:20:30.822Z,62.93
2023-09-19T06:22:58.507Z,63.35
2023-09-19T06:25:26.476Z,63.50
2023-09-19T06:27:58.055Z,62.66
2023-09-19T06:30:26.803Z,62.76
2023-09-19T06:33:00.311Z,62.92
2023-09-19T06:35:30.664Z,63.03
2023-09-19T06:37:59.823Z,63.12
2023-09-19T06:40:29.457Z,63.16
2023-09-19T06:42:57.598Z,63.47
2023-09-19T06:45:28.715Z,64.08
2023-09-19T06:47:59.284Z,64.01
2023-09-19T06:50:29.399Z,63.54
2023-09-19T06:53:00.760Z,63.29
2023-09-19T06:55:33.488Z,62.85
2023-09-19T06:58:01.208Z,62.88
2023-09-19T07:00:29.562Z,62.99
2023-09-19T07:02:58.624Z,63.52
2023-09-19T07:05:26.037Z,62.51
2023-09-19T07:07:53.219Z,61.78
2023-09-19T07:10:21.175Z,63.04
2023-09-19T07:12:48.402Z,61.58
2023-09-19T07:15:15.937Z,61.31
2023-09-19T07:17:43.323Z,63.38
2023-09-19T07:20:11.499Z,59.11
2023-09-19T07:22:40.538Z,52.02
2023-09-19T07:25:09.113Z,52.56
2023-09-19T07:27:42.718Z,49.58
2023-09-19T07:30:14.024Z,50.48
2023-09-19T07:32:42.125Z,49.56
2023-09-19T07:35:09.925Z,46.59
2023-09-19T07:37:41.500Z,48.47
2023-09-19T07:40:11.564Z,48.75
2023-09-19T07:42:42.084Z,48.15
2023-09-19T07:45:10.359Z,46.87
2023-09-19T07:47:37.757Z,43.56
2023-09-19T07:50:08.863Z,42.22
2023-09-19T07:52:36.962Z,40.46
2023-09-19T07:55:10.038Z,38.96
2023-09-19T07:57:38.314Z,36.81
2023-09-19T08:00:11.125Z,35.40
2023-09-19T08:02:43.077Z,32.39
2023-09-19T08:05:16.469Z,29.53
2023-09-19T08:07:49.924Z,28.07
2023-09-19T08:10:20.684Z,27.87
2023-09-19T08:12:50.094Z,30.21
2023-09-19T08:15:21.362Z,28.84
2023-09-19T08:17:49.937Z,27.62
2023-09-19T08:20:18.644Z,26.53
2023-09-19T08:22:50.923Z,25.23
2023-09-19T08:25:21.309Z,23.49
2023-09-19T08:27:51.726Z,22.42
2023-09-19T08:30:28.213Z,21.02
2023-09-19T08:33:06.025Z,20.17
2023-09-19T08:35:33.708Z,21.32
2023-09-19T08:38:10.472Z,22.31
2023-09-19T08:40:43.291Z,21.30
2023-09-19T08:43:11.745Z,21.01
2023-09-19T08:45:39.658Z,20.60
2023-09-19T08:48:29.425Z,21.14
2023-09-19T08:51:27.777Z,25.11
2023-09-19T08:54:27.674Z,25.34
2023-09-19T08:57:03.520Z,27.27
2023-09-19T08:59:32.268Z,27.77
2023-09-19T09:02:00.199Z,28.54
2023-09-19T09:04:36.409Z,29.68
2023-09-19T09:07:04.777Z,30.78
2023-09-19T09:09:36.842Z,28.96
2023-09-19T09:12:08.283Z,26.16
2023-09-19T09:14:35.614Z,23.15
2023-09-19T09:17:04.065Z,20.75
2023-09-19T09:19:32.322Z,19.98
2023-09-19T09:22:10.776Z,19.82
2023-09-19T09:25:05.813Z,18.75
2023-09-19T09:27:35.230Z,20.07
2023-09-19T09:30:03.156Z,22.50
2023-09-19T09:32:40.265Z,24.16
2023-09-19T09:35:15.904Z,23.71
2023-09-19T09:37:48.806Z,22.79
2023-09-19T09:40:17.432Z,22.10
2023-09-19T09:42:48.040Z,21.28
2023-09-19T09:45:35.069Z,19.59
2023-09-19T09:48:15.309Z,18.18
2023-09-19T09:50:56.966Z,17.08
2023-09-19T09:53:34.469Z,16.40
2023-09-19T09:56:10.724Z,15.95
2023-09-19T09:59:00.286Z,15.83
2023-09-19T10:01:32.309Z,15.87
2023-09-19T10:04:01.930Z,16.07
2023-09-19T10:06:48.151Z,15.75
2023-09-19T10:09:18.561Z,15.72
2023-09-19T10:11:58.089Z,15.26
2023-09-19T10:14:33.676Z,15.74
2023-09-19T10:17:07.112Z,18.76
2023-09-19T10:20:19.905Z,19.01
2023-09-19T10:22:58.515Z,20.06
2023-09-19T10:25:31.734Z,19.13
2023-09-19T10:28:06.636Z,19.37
2023-09-19T10:30:48.267Z,18.26
2023-09-19T10:33:21.769Z,17.35
2023-09-19T10:35:55.071Z,17.22
2023-09-19T10:38:29.477Z,18.08
2023-09-19T10:41:04.051Z,18.92
2023-09-19T10:43:36.344Z,18.57
2023-09-19T10:46:12.183Z,18.95
2023-09-19T10:48:45.412Z,19.64
2023-09-19T10:51:26.061Z,20.17
2023-09-19T10:54:14.599Z,18.63
2023-09-19T10:56:53.821Z,19.40
2023-09-19T10:59:25.206Z,20.38
2023-09-19T11:01:59.486Z,22.37
2023-09-19T11:04:36.827Z,23.07
2023-09-19T11:07:18.296Z,23.37
2023-09-19T11:09:49.210Z,21.60
2023-09-19T11:12:51.848Z,19.99
2023-09-19T11:15:59.378Z,20.39
2023-09-19T11:18:42.443Z,19.95
2023-09-19T11:21:32.681Z,20.98
2023-09-19T11:24:23.791Z,21.89
2023-09-19T11:26:53.032Z,23.33
2023-09-19T11:29:30.269Z,21.68
2023-09-19T11:32:00.910Z,22.02
2023-09-19T11:34:40.950Z,21.65
2023-09-19T11:37:14.700Z,21.65
2023-09-19T11:40:17.269Z,21.67
2023-09-19T11:42:55.524Z,21.21
2023-09-19T11:45:47.207Z,20.49
2023-09-19T11:48:19.973Z,21.17
2023-09-19T11:50:51.951Z,21.43
2023-09-19T11:53:21.071Z,20.66
2023-09-19T11:55:52.079Z,20.97
2023-09-19T11:58:21.015Z,21.23
2023-09-19T12:01:20.519Z,22.20
2023-09-19T12:03:58.304Z,21.85
2023-09-19T12:06:31.464Z,21.47
2023-09-19T12:09:01.107Z,21.21
2023-09-19T12:11:36.622Z,21.95
2023-09-19T12:14:08.157Z,21.62
2023-09-19T12:16:57.229Z,22.33
2023-09-19T12:19:27.380Z,22.18
2023-09-19T12:22:12.811Z,22.86
2023-09-19T12:24:45.478Z,23.75
2023-09-19T12:27:13.782Z,22.99
2023-09-19T12:29:50.928Z,22.52
2023-09-19T12:32:22.539Z,24.15
2023-09-19T12:34:55.853Z,24.75
2023-09-19T12:37:28.708Z,24.09
2023-09-19T12:40:19.451Z,23.67
2023-09-19T12:42:50.350Z,23.21
2023-09-19T12:45:19.453Z,23.07
2023-09-19T12:48:35.869Z,22.11
2023-09-19T12:51:17.405Z,23.20
2023-09-19T12:53:50.123Z,23.13
2023-09-19T12:56:19.596Z,22.16
2023-09-19T12:59:04.334Z,22.76
2023-09-19T13:01:33.074Z,23.94
2023-09-19T13:04:22.284Z,25.34
2023-09-19T13:06:52.536Z,25.46
2023-09-19T13:09:23.804Z,25.55
2023-09-19T13:11:52.076Z,25.26
2023-09-19T13:14:29.849Z,24.94
2023-09-19T13:16:57.837Z,24.12
2023-09-19T13:19:59.408Z,24.69
2023-09-19T13:22:59.789Z,25.60
2023-09-19T13:25:30.988Z,25.53
2023-09-19T13:27:59.795Z,26.59
2023-09-19T13:30:32.869Z,26.78
2023-09-19T13:33:12.905Z,26.55
2023-09-19T13:35:44.485Z,26.14
2023-09-19T13:38:13.300Z,26.51
2023-09-19T13:40:45.060Z,26.28
2023-09-19T13:43:12.987Z,27.33
2023-09-19T13:45:43.757Z,27.71
2023-09-19T13:48:14.323Z,26.56
2023-09-19T13:50:43.412Z,25.77
2023-09-19T13:53:11.245Z,26.09
2023-09-19T13:55:39.214Z,26.20
2023-09-19T13:58:07.824Z,26.24
2023-09-19T14:00:39.753Z,25.73
2023-09-19T14:03:08.235Z,26.45
2023-09-19T14:05:35.723Z,26.26
2023-09-19T14:08:04.480Z,26.85
2023-09-19T14:10:32.683Z,27.52
2023-09-19T14:13:00.606Z,27.12
2023-09-19T14:15:31.787Z,26.21
2023-09-19T14:18:01.750Z,26.54
2023-09-19T14:20:30.445Z,26.40
2023-09-19T14:22:59.962Z,26.99
2023-09-19T14:25:27.221Z,27.07
2023-09-19T14:27:54.871Z,26.63
2023-09-19T14:30:23.060Z,26.50
2023-09-19T14:32:51.073Z,26.44
2023-09-19T14:35:19.034Z,26.95
2023-09-19T14:37:47.058Z,26.52
2023-09-19T14:40:16.811Z,25.97
2023-09-19T14:42:46.179Z,26.26
2023-09-19T14:45:15.921Z,26.17
2023-09-19T14:47:43.593Z,26.46
2023-09-19T14:50:12.900Z,26.59
2023-09-19T14:52:41.034Z,26.34
2023-09-19T14:55:15.392Z,25.90
2023-09-19T14:57:47.128Z,26.17
2023-09-19T15:00:15.188Z,26.29
2023-09-19T15:02:42.974Z,26.68
2023-09-19T15:05:10.583Z,26.31
2023-09-19T15:07:39.028Z,26.63
2023-09-19T15:10:10.722Z,26.09
2023-09-19T15:12:39.001Z,26.40
2023-09-19T15:15:10.283Z,25.97
2023-09-19T15:17:38.386Z,25.50
2023-09-19T15:20:08.116Z,25.83
2023-09-19T15:22:36.800Z,25.97
2023-09-19T15:25:05.192Z,26.41
2023-09-19T15:27:33.889Z,26.66
2023-09-19T15:30:03.914Z,26.21
2023-09-19T15:32:34.660Z,26.48
2023-09-19T15:35:02.217Z,27.58
2023-09-19T15:37:29.890Z,26.81
2023-09-19T15:39:57.365Z,27.05
2023-09-19T15:42:24.928Z,27.14
2023-09-19T15:44:52.453Z,26.54
2023-09-19T15:47:21.112Z,26.44
2023-09-19T15:49:50.490Z,26.81
2023-09-19T15:52:44.642Z,27.11
2023-09-19T15:55:13.290Z,26.74
2023-09-19T15:57:40.650Z,26.40
2023-09-19T16:00:15.069Z,26.76
2023-09-19T16:02:43.064Z,27.08
2023-09-19T16:05:10.916Z,27.21
2023-09-19T16:07:39.373Z,27.08
2023-09-19T16:10:09.217Z,26.93
2023-09-19T16:12:36.654Z,27.69
2023-09-19T16:15:04.455Z,28.03
2023-09-19T16:17:31.727Z,28.18
2023-09-19T16:19:58.949Z,27.86
2023-09-19T16:22:27.454Z,27.50
2023-09-19T16:24:55.381Z,27.58
2023-09-19T16:27:22.711Z,27.54
2023-09-19T16:29:51.429Z,27.48
2023-09-19T16:32:21.069Z,28.10
2023-09-19T16:34:48.835Z,28.22
2023-09-19T16:37:16.872Z,28.51
2023-09-19T16:39:44.610Z,28.75
2023-09-19T16:42:20.416Z,28.87
2023-09-19T16:44:49.148Z,28.84
2023-09-19T16:47:16.877Z,29.17
2023-09-19T16:49:44.439Z,29.56
2023-09-19T16:52:12.124Z,29.84
2023-09-19T16:54:40.727Z,30.12
2023-09-19T16:57:08.479Z,30.02
2023-09-19T16:59:35.754Z,30.18
2023-09-19T17:02:03.128Z,30.19
2023-09-19T17:04:32.341Z,30.45
2023-09-19T17:06:59.940Z,30.58
2023-09-19T17:09:27.444Z,30.51
2023-09-19T17:11:54.731Z,31.13
2023-09-19T17:14:22.021Z,30.98
2023-09-19T17:16:50.160Z,31.17
2023-09-19T17:19:17.411Z,31.37
2023-09-19T17:21:44.683Z,31.83
2023-09-19T17:26:43.868Z,32.18
2023-09-19T17:29:13.458Z,31.86
2023-09-19T17:31:41.462Z,32.40
2023-09-19T17:34:09.441Z,32.42
2023-09-19T17:36:37.371Z,32.89
2023-09-19T17:39:06.874Z,33.25
2023-09-19T17:41:34.212Z,33.25
2023-09-19T17:44:01.693Z,33.31
2023-09-19T17:46:30.930Z,33.65
2023-09-19T17:49:01.016Z,33.83
2023-09-19T17:51:30.129Z,34.14
2023-09-19T17:54:00.766Z,34.10
2023-09-19T17:56:30.045Z,34.33
2023-09-19T17:58:58.872Z,34.80
2023-09-19T18:01:29.553Z,35.33
2023-09-19T18:03:59.512Z,35.30
2023-09-19T18:06:29.521Z,35.94
2023-09-19T18:08:57.583Z,36.17
2023-09-19T18:11:29.333Z,36.13
2023-09-19T18:13:58.865Z,36.88
2023-09-19T18:16:33.012Z,37.42
2023-09-19T18:19:03.563Z,36.73
2023-09-19T18:21:34.085Z,37.38
2023-09-19T18:24:05.641Z,37.65
2023-09-19T18:26:34.547Z,38.00
2023-09-19T18:29:04.436Z,39.52
2023-09-19T18:31:34.891Z,39.98
2023-09-19T18:34:02.659Z,40.31
2023-09-19T18:36:30.233Z,39.46
2023-09-19T18:38:58.351Z,39.72
2023-09-19T18:41:26.080Z,39.33
2023-09-19T18:43:53.567Z,39.40
2023-09-19T18:46:21.230Z,40.50
2023-09-19T18:48:53.995Z,41.79
2023-09-19T18:51:22.105Z,44.08
2023-09-19T18:54:09.638Z,44.24
2023-09-19T18:56:45.138Z,44.95
2023-09-19T18:59:14.783Z,44.16
2023-09-19T19:01:44.715Z,44.83
2023-09-19T19:04:13.084Z,44.17
2023-09-19T19:06:40.556Z,44.16
2023-09-19T19:11:35.854Z,44.81
2023-09-19T19:14:03.308Z,45.56
2023-09-19T19:16:32.868Z,45.72
2023-09-19T19:19:00.229Z,44.46
2023-09-19T19:21:28.134Z,45.76
2023-09-19T19:23:55.350Z,45.22
2023-09-19T19:26:26.194Z,45.34
2023-09-19T19:28:53.985Z,44.42
2023-09-19T19:31:23.559Z,43.73
2023-09-19T19:33:55.001Z,43.79
2023-09-19T19:36:23.932Z,44.56
2023-09-19T19:38:53.639Z,44.16
2023-09-19T19:41:21.664Z,42.95
2023-09-19T19:43:50.470Z,42.88
2023-09-19T19:46:18.756Z,43.22
2023-09-19T19:48:55.467Z,43.95
2023-09-19T19:51:23.239Z,45.46
2023-09-19T19:53:51.848Z,45.03
2023-09-19T19:56:20.028Z,43.71
2023-09-19T19:58:49.079Z,43.99
2023-09-19T20:01:17.104Z,44.79
2023-09-19T20:03:45.617Z,44.75
2023-09-19T20:06:14.077Z,44.34
2023-09-19T20:08:41.793Z,44.36
2023-09-19T20:11:10.417Z,44.30
2023-09-19T20:13:43.356Z,44.88
2023-09-19T20:16:13.624Z,44.55
2023-09-19T20:18:41.524Z,45.53
2023-09-19T20:21:14.361Z,45.66
2023-09-19T20:23:48.234Z,46.43
2023-09-19T20:26:15.674Z,46.78
2023-09-19T20:28:43.693Z,46.54
2023-09-19T20:31:15.471Z,46.99
2023-09-19T20:33:43.499Z,47.66
2023-09-19T20:36:12.828Z,47.37
2023-09-19T20:38:41.155Z,47.77
2023-09-19T20:41:13.994Z,47.51
2023-09-19T20:43:44.559Z,47.86
2023-09-19T20:46:13.049Z,47.90
2023-09-19T20:48:42.251Z,48.32
2023-09-19T20:51:14.960Z,49.13
2023-09-19T20:53:47.008Z,50.24
2023-09-19T20:56:16.436Z,49.43
2023-09-19T20:58:44.810Z,51.11
2023-09-19T21:01:12.980Z,49.52
2023-09-19T21:03:41.032Z,49.37
2023-09-19T21:06:14.597Z,50.35
2023-09-19T21:08:43.724Z,51.57
2023-09-19T21:11:22.229Z,50.01
2023-09-19T21:13:54.188Z,51.06
2023-09-19T21:16:22.688Z,50.69
2023-09-19T21:18:50.742Z,52.39
2023-09-19T21:21:18.085Z,51.58
2023-09-19T21:23:45.621Z,50.42
2023-09-19T21:26:15.075Z,50.40
2023-09-19T21:28:45.434Z,50.86
2023-09-19T21:31:16.049Z,51.22
2023-09-19T21:33:46.174Z,50.00
2023-09-19T21:36:21.742Z,50.59
2023-09-19T21:38:51.191Z,51.99
2023-09-19T21:41:20.523Z,51.25
2023-09-19T21:43:54.984Z,52.55
2023-09-19T21:46:23.660Z,52.44
2023-09-19T21:49:04.929Z,52.22
2023-09-19T21:51:34.467Z,51.48
2023-09-19T21:54:04.407Z,51.44
2023-09-19T21:56:32.474Z,51.58
2023-09-19T21:59:00.213Z,50.99
2023-09-19T22:01:28.966Z,50.82
2023-09-19T22:03:56.715Z,51.58
2023-09-19T22:06:24.498Z,52.03
2023-09-19T22:08:52.562Z,52.51
2023-09-19T22:11:21.753Z,51.57
2023-09-19T22:13:50.086Z,51.83
2023-09-19T22:16:18.853Z,51.89
2023-09-19T22:18:47.707Z,52.59
2023-09-19T22:21:23.528Z,52.20
2023-09-19T22:23:53.907Z,51.67
2023-09-19T22:26:24.126Z,52.44
2023-09-19T22:28:56.587Z,52.77
2023-09-19T22:31:42.709Z,52.64
2023-09-19T22:34:10.920Z,52.36
2023-09-19T22:36:44.713Z,53.25
2023-09-19T22:39:25.443Z,52.68
2023-09-19T22:41:54.809Z,52.71
2023-09-19T22:44:27.337Z,52.00
2023-09-19T22:46:55.584Z,51.87
2023-09-19T22:49:22.918Z,52.92
2023-09-19T22:51:52.189Z,52.72
2023-09-19T22:54:27.635Z,53.29
2023-09-19T22:56:56.853Z,53.56
2023-09-19T22:59:24.467Z,52.92
2023-09-19T23:01:53.186Z,53.59
2023-09-19T23:04:23.001Z,53.40
2023-09-19T23:06:53.373Z,53.03
2023-09-19T23:09:23.791Z,54.29
2023-09-19T23:12:03.524Z,54.58
2023-09-19T23:14:36.464Z,54.47
2023-09-19T23:17:09.382Z,54.01
2023-09-19T23:19:38.951Z,53.65
2023-09-19T23:22:18.233Z,54.36
2023-09-19T23:24:57.207Z,55.47
2023-09-19T23:27:28.247Z,53.97
2023-09-19T23:29:57.404Z,54.02
2023-09-19T23:32:26.210Z,53.25
2023-09-19T23:34:58.929Z,54.41
2023-09-19T23:37:26.161Z,54.66
2023-09-19T23:39:54.703Z,54.04
2023-09-19T23:42:22.791Z,54.37
2023-09-19T23:44:52.343Z,54.93
2023-09-19T23:47:20.089Z,56.21
2023-09-19T23:49:49.830Z,56.78
2023-09-19T23:52:18.971Z,56.85
2023-09-19T23:54:51.950Z,56.96
2023-09-19T23:57:22.784Z,56.84
2023-09-19T23:59:50.742Z,56.93
